Time;durP1;ratioP1;P1;durP2;ratioP2;P2;SDS_P1;SDS_P2;PMS_P1;PMS_P2;Temp;Humidity;BMP_temperature;BMP_pressure;BME280_temperature;BME280_humidity;BME280_pressure;Samples;Min_cycle;Max_cycle;Signal;HPM_P1;HPM_P2
2022/08/01 00:00:31;;;;;;;;;3.00;3.00;;;;;23.56;53.46;101301.41;5093727;27;45430;-85
2022/08/01 00:02:56;;;;;;;;;4.00;4.00;;;;;23.46;53.62;101290.78;5075649;27;45441;-83
2022/08/01 00:05:22;;;;;;;;;3.00;3.00;;;;;23.43;53.59;101289.91;5093872;27;45429;-83
2022/08/01 00:07:47;;;;;;;;;2.00;2.00;;;;;23.52;54.11;101299.66;5093764;27;45557;-82
2022/08/01 00:10:14;;;;;;;;;3.00;3.00;;;;;23.45;53.43;101287.22;5093805;27;45387;-84
2022/08/01 00:12:41;;;;;;;;;3.00;3.00;;;;;23.49;53.65;101299.66;5093734;27;45810;-84
2022/08/01 00:15:09;;;;;;;;;2.50;2.50;;;;;23.43;53.97;101295.25;5093688;27;45591;-84
2022/08/01 00:17:35;;;;;;;;;2.00;2.00;;;;;23.33;53.90;101279.28;5075183;27;45574;-85
2022/08/01 00:20:02;;;;;;;;;2.00;2.00;;;;;23.42;53.49;101292.59;5074855;27;47971;-82
2022/08/01 00:22:27;;;;;;;;;3.50;3.50;;;;;23.32;53.88;101285.53;5075027;27;45378;-82
2022/08/01 00:24:53;;;;;;;;;1.00;1.00;;;;;23.27;54.17;101280.22;5075495;27;45350;-82
2022/08/01 00:27:18;;;;;;;;;2.00;2.00;;;;;23.16;54.43;101264.22;5093592;27;45425;-83
2022/08/01 00:29:43;;;;;;;;;2.00;2.00;;;;;23.16;54.56;101263.34;5075074;27;48184;-84
2022/08/01 00:32:09;;;;;;;;;2.00;2.00;;;;;23.13;53.92;101261.56;5093578;27;45406;-83
2022/08/01 00:34:34;;;;;;;;;1.75;1.75;;;;;23.13;54.59;101253.53;5093037;27;45488;-83
2022/08/01 00:36:59;;;;;;;;;2.25;2.25;;;;;23.24;54.18;101277.56;5093420;27;45549;-85
2022/08/01 00:39:25;;;;;;;;;3.00;3.00;;;;;23.05;54.66;101238.41;5093371;27;45548;-82
2022/08/01 00:41:50;;;;;;;;;2.00;1.75;;;;;23.12;54.02;101246.38;5093362;27;45436;-85
2022/08/01 00:44:16;;;;;;;;;1.00;1.00;;;;;23.34;54.35;101283.72;5075018;27;45238;-85
2022/08/01 00:46:41;;;;;;;;;3.25;3.25;;;;;23.22;54.38;101243.63;5093317;27;45445;-84
2022/08/01 00:49:06;;;;;;;;;2.00;1.25;;;;;23.12;53.91;101230.28;5076276;27;47188;-85
2022/08/01 00:51:33;;;;;;;;;2.00;2.00;;;;;23.40;54.65;101272.97;5096828;27;45414;-83
2022/08/01 00:54:00;;;;;;;;;1.25;1.25;;;;;23.24;54.07;101256.09;5096748;27;45398;-82
2022/08/01 00:56:26;;;;;;;;;1.00;1.00;;;;;23.37;54.59;101281.03;5096851;27;45415;-84
2022/08/01 00:58:52;;;;;;;;;1.00;1.00;;;;;23.11;54.48;101249.97;5078328;27;47938;-85
2022/08/01 01:01:20;;;;;;;;;0.00;0.00;;;;;23.13;55.24;101258.88;5078279;27;45320;-84
2022/08/01 01:03:46;;;;;;;;;3.00;3.00;;;;;23.08;54.72;101257.16;5096318;27;45346;-84
2022/08/01 01:06:25;;;;;;;;;1.00;1.00;;;;;23.14;54.63;101276.75;5096554;27;45635;-82
2022/08/01 01:09:28;;;;;;;;;1.00;1.00;;;;;23.07;55.08;101269.66;5096400;27;45483;-84
2022/08/01 01:12:13;;;;;;;;;1.50;1.50;;;;;23.03;55.15;101270.59;5096974;27;45568;-84
2022/08/01 01:14:46;;;;;;;;;1.00;1.00;;;;;22.87;55.51;101252.84;5096142;27;45399;-83
2022/08/01 01:17:16;;;;;;;;;1.00;1.00;;;;;22.67;56.11;101221.72;5096516;27;45303;-83
2022/08/01 01:19:47;;;;;;;;;2.00;2.00;;;;;22.89;55.64;101259.09;5095605;27;46611;-81
2022/08/01 01:22:30;;;;;;;;;2.00;2.00;;;;;22.91;55.84;101274.28;5077894;27;46031;-84
2022/08/01 01:25:07;;;;;;;;;1.00;1.00;;;;;22.94;55.83;101273.34;5096177;27;45402;-84
2022/08/01 01:27:49;;;;;;;;;1.50;1.50;;;;;22.99;55.66;101271.50;5096093;27;45563;-82
2022/08/01 01:30:15;;;;;;;;;2.00;1.00;;;;;22.96;55.53;101266.19;5095899;27;46602;-83
2022/08/01 01:32:48;;;;;;;;;1.00;1.00;;;;;22.95;55.37;101264.41;5077624;27;45891;-83
2022/08/01 01:35:18;;;;;;;;;1.00;1.00;;;;;22.99;55.59;101274.19;5096582;27;45497;-85
2022/08/01 01:37:47;;;;;;;;;1.00;1.00;;;;;22.97;55.85;101267.97;5096745;27;45581;-85
2022/08/01 01:40:15;;;;;;;;;2.00;2.00;;;;;22.79;56.16;101250.19;5096106;27;45419;-85
2022/08/01 01:42:42;;;;;;;;;2.00;2.00;;;;;22.74;55.58;101243.97;5096381;27;45401;-85
2022/08/01 01:45:08;;;;;;;;;1.00;1.00;;;;;22.71;56.12;101248.47;5096429;27;45306;-85
2022/08/01 01:47:38;;;;;;;;;1.00;1.00;;;;;22.79;55.86;101252.00;5096175;27;45278;-85
2022/08/01 01:50:06;;;;;;;;;1.75;1.25;;;;;22.63;55.79;101229.78;5095947;27;45655;-85
2022/08/01 01:52:32;;;;;;;;;2.50;2.00;;;;;22.70;56.20;101235.97;5096077;27;45447;-84
2022/08/01 01:54:59;;;;;;;;;1.50;1.50;;;;;22.73;55.99;101235.97;5077777;27;45476;-85
2022/08/01 01:57:28;;;;;;;;;1.50;1.50;;;;;22.69;55.84;101226.16;5096352;27;45391;-84
2022/08/01 01:59:55;;;;;;;;;3.25;1.00;;;;;22.78;56.05;101247.53;5076653;27;48617;-84
2022/08/01 02:02:23;;;;;;;;;1.25;1.00;;;;;22.79;55.57;101262.72;5077420;27;45876;-85
2022/08/01 02:04:50;;;;;;;;;0.25;0.25;;;;;22.84;55.78;101268.94;5095506;27;45328;-85
2022/08/01 02:07:22;;;;;;;;;2.00;1.75;;;;;22.79;55.85;101271.63;5095892;27;45568;-84
2022/08/01 02:09:48;;;;;;;;;1.00;1.00;;;;;22.67;55.83;101250.31;5077618;27;47028;-85
2022/08/01 02:12:17;;;;;;;;;1.00;1.00;;;;;22.77;56.10;101272.56;5095822;27;45476;-84
2022/08/01 02:14:45;;;;;;;;;1.75;1.75;;;;;22.70;55.93;101269.00;5095826;27;45381;-84
2022/08/01 02:17:15;;;;;;;;;2.00;2.00;;;;;22.59;56.65;101244.97;5077673;27;45623;-84
2022/08/01 02:19:40;;;;;;;;;2.00;1.25;;;;;22.33;56.28;101210.34;5094773;27;46480;-85
2022/08/01 02:22:16;;;;;;;;;1.00;1.00;;;;;22.60;56.64;101268.19;5095590;27;45484;-85
2022/08/01 02:24:49;;;;;;;;;1.00;1.00;;;;;22.55;56.83;101261.97;5095704;27;45369;-84
2022/08/01 02:27:20;;;;;;;;;0.00;0.00;;;;;22.45;56.74;101259.38;5077328;27;45526;-84
2022/08/01 02:29:53;;;;;;;;;4.25;4.25;;;;;22.49;56.85;101270.06;5095130;27;45572;-84
2022/08/01 02:32:39;;;;;;;;;1.50;1.00;;;;;22.39;56.94;101245.09;5095372;27;45376;-85
2022/08/01 02:35:09;;;;;;;;;1.25;1.00;;;;;22.35;56.90;101242.47;5072442;27;45495;-84
2022/08/01 02:37:38;;;;;;;;;0.50;0.50;;;;;22.37;57.03;101246.94;5095492;27;45370;-83
2022/08/01 02:40:05;;;;;;;;;0.75;0.75;;;;;22.39;57.13;101252.25;5076789;27;48163;-85
2022/08/01 02:42:32;;;;;;;;;0.75;0.75;;;;;22.43;56.85;101263.84;5095202;27;45477;-85
2022/08/01 02:44:58;;;;;;;;;1.00;1.00;;;;;22.43;57.29;101269.22;5095358;27;45446;-84
2022/08/01 02:47:27;;;;;;;;;1.50;1.00;;;;;22.36;57.19;101266.56;5076645;27;45813;-84
2022/08/01 02:49:54;;;;;;;;;1.00;1.00;;;;;22.18;57.71;101237.22;5076380;27;48569;-82
2022/08/01 02:52:22;;;;;;;;;2.00;2.00;;;;;22.17;57.77;101239.88;5095072;27;45319;-85
2022/08/01 02:54:51;;;;;;;;;1.00;1.00;;;;;22.12;57.41;101240.81;5094913;27;45345;-83
2022/08/01 02:57:20;;;;;;;;;1.00;1.00;;;;;22.19;57.88;101248.81;5094675;27;45421;-83
2022/08/01 02:59:47;;;;;;;;;2.00;2.00;;;;;22.21;57.85;101252.34;5094504;27;45348;-84
2022/08/01 03:02:14;;;;;;;;;1.75;1.75;;;;;22.26;57.85;101254.09;5094991;27;46016;-84
2022/08/01 03:04:41;;;;;;;;;0.00;0.00;;;;;22.04;57.82;101218.50;5094223;27;45364;-82
2022/08/01 03:07:09;;;;;;;;;0.00;0.00;;;;;22.26;57.92;101253.22;5094570;27;45506;-84
2022/08/01 03:09:44;;;;;;;;;1.00;1.00;;;;;22.26;57.98;101250.53;5094785;27;45647;-84
2022/08/01 03:12:15;;;;;;;;;1.75;1.75;;;;;22.25;58.05;101248.75;5094077;27;45987;-84
2022/08/01 03:14:42;;;;;;;;;1.75;1.00;;;;;22.32;57.72;101255.88;5094291;27;45386;-82
2022/08/01 03:17:09;;;;;;;;;1.00;1.00;;;;;22.28;57.92;101243.41;5094395;27;45426;-82
2022/08/01 03:19:37;;;;;;;;;1.00;1.00;;;;;22.21;57.75;101222.91;5093877;27;46395;-84
2022/08/01 03:22:07;;;;;;;;;2.00;2.00;;;;;22.37;57.43;101232.66;5076389;27;46123;-82
2022/08/01 03:24:34;;;;;;;;;0.00;0.00;;;;;22.52;57.80;101262.00;5094333;27;45393;-84
2022/08/01 03:27:02;;;;;;;;;0.75;0.75;;;;;22.33;57.61;101221.06;5094364;27;45345;-84
2022/08/01 03:29:29;;;;;;;;;1.00;1.00;;;;;22.48;57.70;101244.16;5093978;27;45526;-85
2022/08/01 03:31:55;;;;;;;;;1.00;1.00;;;;;22.59;57.79;101253.03;5094715;27;46198;-85
2022/08/01 03:34:21;;;;;;;;;1.00;1.00;;;;;22.58;57.44;101253.94;5094093;27;45405;-84
2022/08/01 03:37:01;;;;;;;;;1.50;1.00;;;;;22.59;57.80;101247.66;5075993;27;45452;-85
2022/08/01 03:39:33;;;;;;;;;1.00;1.00;;;;;22.72;57.87;101264.56;5094858;27;45883;-84
2022/08/01 03:42:05;;;;;;;;;2.00;1.25;;;;;22.71;57.01;101260.09;5094698;27;45687;-85
2022/08/01 03:44:35;;;;;;;;;2.00;2.00;;;;;22.67;57.42;101248.50;5094924;27;45568;-85
2022/08/01 03:47:08;;;;;;;;;1.50;1.50;;;;;22.80;57.37;101264.47;5094168;27;45355;-84
2022/08/01 03:49:41;;;;;;;;;2.25;2.25;;;;;22.87;57.15;101267.13;5093494;27;48018;-85
2022/08/01 03:52:08;;;;;;;;;2.00;1.50;;;;;22.67;57.33;101231.53;5075782;27;45497;-85
2022/08/01 03:54:37;;;;;;;;;3.25;2.00;;;;;22.74;57.60;101238.63;5094215;27;45419;-85
2022/08/01 03:57:03;;;;;;;;;0.75;0.75;;;;;22.78;57.18;101250.22;5094462;27;45612;-85
2022/08/01 03:59:30;;;;;;;;;1.00;1.00;;;;;22.84;57.45;101258.19;5094294;27;46695;-85
2022/08/01 04:01:57;;;;;;;;;2.25;1.25;;;;;22.91;57.63;101263.56;5094021;27;45443;-82
2022/08/01 04:04:23;;;;;;;;;1.00;1.00;;;;;22.79;57.57;101242.16;5075740;27;45619;-84
2022/08/01 04:06:53;;;;;;;;;1.00;1.00;;;;;22.86;57.04;101249.25;5094335;27;45551;-84
2022/08/01 04:09:19;;;;;;;;;1.50;1.50;;;;;22.81;57.80;101244.84;5094054;27;45503;-84
2022/08/01 04:11:45;;;;;;;;;1.00;1.00;;;;;22.78;57.71;101235.03;5075375;27;45418;-84
2022/08/01 04:14:10;;;;;;;;;1.75;1.75;;;;;22.75;57.26;101229.66;5093800;27;45446;-84
2022/08/01 04:16:36;;;;;;;;;1.00;1.00;;;;;22.76;57.00;101223.44;5094071;27;45335;-85
2022/08/01 04:19:02;;;;;;;;;1.25;1.25;;;;;22.87;57.10;101237.63;5093781;27;45776;-85
2022/08/01 04:21:29;;;;;;;;;1.00;1.00;;;;;22.76;57.32;101215.41;5093801;27;45437;-84
2022/08/01 04:23:59;;;;;;;;;2.00;2.00;;;;;22.88;57.64;101243.88;5095267;27;45389;-85
2022/08/01 04:26:28;;;;;;;;;2.00;1.00;;;;;22.77;57.19;101227.00;5097852;27;45381;-84
2022/08/01 04:28:55;;;;;;;;;3.75;3.75;;;;;22.73;57.52;101209.16;5097131;27;45429;-84
2022/08/01 04:31:25;;;;;;;;;3.50;3.00;;;;;22.77;57.46;101210.91;5097268;27;45485;-81
2022/08/01 04:33:53;;;;;;;;;3.00;3.00;;;;;22.87;57.23;101229.59;5097092;27;45381;-84
2022/08/01 04:36:23;;;;;;;;;3.00;3.00;;;;;22.78;57.51;101208.22;5097146;27;45327;-84
2022/08/01 04:38:52;;;;;;;;;1.75;1.75;;;;;22.87;57.40;101220.66;5078742;27;47754;-82
2022/08/01 04:41:18;;;;;;;;;2.00;2.00;;;;;22.90;57.24;101228.69;5096657;27;45813;-83
2022/08/01 04:43:43;;;;;;;;;1.00;1.00;;;;;23.04;56.97;101253.59;5078672;27;45337;-84
2022/08/01 04:46:10;;;;;;;;;2.00;2.00;;;;;23.04;57.08;101252.72;5078513;27;45506;-83
2022/08/01 04:48:38;;;;;;;;;1.75;1.75;;;;;22.86;57.19;101230.50;5096106;27;45655;-82
2022/08/01 04:51:04;;;;;;;;;2.00;2.00;;;;;22.97;57.04;101254.56;5078204;27;45860;-84
2022/08/01 04:53:32;;;;;;;;;2.00;2.00;;;;;22.86;57.15;101235.88;5096735;27;45462;-83
2022/08/01 04:55:57;;;;;;;;;1.00;1.00;;;;;22.85;57.51;101231.38;5078283;27;45617;-82
2022/08/01 04:58:23;;;;;;;;;1.00;1.00;;;;;22.96;57.30;101247.44;5078007;27;47532;-84
2022/08/01 05:00:48;;;;;;;;;1.00;1.00;;;;;22.87;57.67;101228.72;5096726;27;45443;-82
2022/08/01 05:03:13;;;;;;;;;2.00;2.00;;;;;23.02;56.94;101263.47;5078008;27;45554;-82
2022/08/01 05:05:39;;;;;;;;;1.00;1.00;;;;;22.80;57.32;101219.81;5096622;27;45386;-83
2022/08/01 05:08:05;;;;;;;;;1.25;1.25;;;;;22.87;57.68;101244.78;5096601;27;45502;-84
2022/08/01 05:10:31;;;;;;;;;1.50;1.00;;;;;23.06;57.40;101269.69;5077849;27;45483;-84
2022/08/01 05:12:56;;;;;;;;;2.75;2.00;;;;;22.94;57.45;101245.66;5096431;27;45343;-82
2022/08/01 05:15:22;;;;;;;;;2.50;2.50;;;;;23.07;57.56;101269.66;5096038;27;45520;-82
2022/08/01 05:17:47;;;;;;;;;2.00;2.00;;;;;22.81;57.57;101223.41;5096627;27;45532;-82
2022/08/01 05:20:13;;;;;;;;;2.00;1.00;;;;;23.07;56.90;101269.66;5095813;27;45387;-83
2022/08/01 05:22:38;;;;;;;;;3.00;2.00;;;;;22.89;57.30;101243.00;5096484;27;45339;-82
2022/08/01 05:25:07;;;;;;;;;3.00;2.00;;;;;23.02;57.43;101273.28;5096234;27;45338;-82
2022/08/01 05:27:38;;;;;;;;;3.25;3.00;;;;;22.90;57.81;101250.13;5077890;27;47689;-83
2022/08/01 05:30:04;;;;;;;;;3.50;2.25;;;;;22.90;57.55;101240.31;5077843;27;45490;-84
2022/08/01 05:32:30;;;;;;;;;0.00;0.00;;;;;23.09;57.82;101265.16;5096240;27;45445;-84
2022/08/01 05:34:55;;;;;;;;;1.50;1.25;;;;;23.12;58.11;101262.47;5095479;27;45548;-82
2022/08/01 05:37:20;;;;;;;;;1.00;1.00;;;;;23.14;57.18;101259.78;5095956;27;46439;-83
2022/08/01 05:39:46;;;;;;;;;4.00;4.00;;;;;23.25;57.84;101273.06;5096065;27;45472;-84
2022/08/01 05:42:11;;;;;;;;;2.00;2.00;;;;;23.22;57.54;101263.28;5096321;27;45377;-82
2022/08/01 05:44:36;;;;;;;;;1.75;1.75;;;;;23.15;57.70;101254.41;5096081;27;45415;-84
2022/08/01 05:47:02;;;;;;;;;1.00;1.00;;;;;23.18;57.61;101251.69;5095720;27;45485;-84
2022/08/01 05:49:28;;;;;;;;;2.00;2.00;;;;;23.12;57.66;101238.34;5095411;27;45845;-83
2022/08/01 05:51:53;;;;;;;;;2.00;2.00;;;;;23.36;58.17;101284.63;5095892;27;46043;-84
2022/08/01 05:54:18;;;;;;;;;2.25;2.25;;;;;23.28;57.53;101271.25;5095841;27;45428;-84
2022/08/01 05:56:43;;;;;;;;;2.25;2.25;;;;;23.13;57.75;101247.28;5095627;27;45504;-82
2022/08/01 05:59:09;;;;;;;;;1.50;1.50;;;;;23.31;57.13;101279.28;5077273;27;45434;-82
2022/08/01 06:01:34;;;;;;;;;1.50;1.50;;;;;23.14;57.59;101247.25;5095973;27;45378;-81
2022/08/01 06:03:59;;;;;;;;;2.25;2.00;;;;;23.33;57.88;101276.59;5095495;27;45594;-84
2022/08/01 06:06:25;;;;;;;;;1.25;1.25;;;;;23.35;57.39;101272.09;5095932;27;46488;-84
2022/08/01 06:08:51;;;;;;;;;1.50;1.50;;;;;23.39;57.11;101287.25;5095680;27;45442;-84
2022/08/01 06:11:17;;;;;;;;;2.00;2.00;;;;;23.38;57.12;101285.47;5095961;27;45324;-85
2022/08/01 06:13:42;;;;;;;;;1.00;1.00;;;;;23.33;57.30;101281.94;5095429;27;45346;-83
2022/08/01 06:16:08;;;;;;;;;1.00;1.00;;;;;23.35;57.98;101281.06;5076877;27;47194;-84
2022/08/01 06:18:33;;;;;;;;;3.00;2.25;;;;;23.43;57.89;101278.28;5095220;27;45506;-84
2022/08/01 06:20:58;;;;;;;;;1.75;1.75;;;;;23.51;57.97;101283.59;5095675;27;45387;-84
2022/08/01 06:23:24;;;;;;;;;2.50;1.75;;;;;23.58;57.42;101280.81;5095245;27;45505;-84
2022/08/01 06:25:53;;;;;;;;;1.75;1.75;;;;;23.52;57.63;101269.25;5095469;27;46300;-84
2022/08/01 06:28:19;;;;;;;;;1.00;1.00;;;;;23.47;57.74;101257.69;5095667;27;45615;-82
2022/08/01 06:30:44;;;;;;;;;1.25;1.25;;;;;23.50;57.53;101274.66;5095354;27;45382;-82
2022/08/01 06:33:09;;;;;;;;;2.25;2.00;;;;;23.46;57.24;101258.59;5076509;27;45449;-84
2022/08/01 06:35:35;;;;;;;;;1.00;1.00;;;;;23.56;57.91;101269.22;5094758;27;48596;-84
2022/08/01 06:38:02;;;;;;;;;1.00;1.00;;;;;23.71;57.60;101284.28;5095136;27;45465;-83
2022/08/01 06:40:28;;;;;;;;;2.00;2.00;;;;;23.74;57.35;101277.97;5095303;27;45339;-83
2022/08/01 06:42:53;;;;;;;;;2.50;1.50;;;;;23.79;57.14;101285.09;5076956;27;45425;-83
2022/08/01 06:45:22;;;;;;;;;2.50;2.00;;;;;23.73;57.38;101266.34;5076579;27;48065;-84
2022/08/01 06:47:48;;;;;;;;;1.50;1.50;;;;;23.94;56.74;101290.28;5094049;27;45388;-84
2022/08/01 06:50:14;;;;;;;;;1.00;1.00;;;;;23.74;57.30;101254.72;5076347;27;45343;-85
2022/08/01 06:52:40;;;;;;;;;2.00;1.50;;;;;23.70;56.60;101255.69;5094996;27;45235;-84
2022/08/01 06:55:06;;;;;;;;;1.00;1.00;;;;;23.78;57.19;101255.56;5094956;27;46463;-84
2022/08/01 06:57:32;;;;;;;;;1.75;1.75;;;;;23.92;56.52;101277.78;5076305;27;45356;-82
2022/08/01 07:00:11;;;;;;;;;2.00;2.00;;;;;23.86;56.59;101265.31;5094900;27;45486;-84
2022/08/01 07:02:36;;;;;;;;;0.75;0.75;;;;;23.86;56.39;101273.38;5094741;27;45417;-83
2022/08/01 07:05:03;;;;;;;;;2.00;2.00;;;;;23.94;56.18;101287.59;5075965;27;48284;-85
2022/08/01 07:07:29;;;;;;;;;1.00;1.00;;;;;23.81;56.77;101266.28;5095061;27;45865;-84
2022/08/01 07:09:54;;;;;;;;;3.00;3.00;;;;;23.95;56.28;101293.88;5095397;27;45368;-85
2022/08/01 07:12:20;;;;;;;;;1.25;1.25;;;;;23.87;56.25;101260.84;5095611;27;45769;-85
2022/08/01 07:14:45;;;;;;;;;1.00;1.00;;;;;23.86;56.40;101261.75;5094613;27;45262;-85
2022/08/01 07:17:10;;;;;;;;;1.25;1.25;;;;;24.00;56.05;101273.22;5076470;27;45422;-84
2022/08/01 07:19:36;;;;;;;;;1.50;1.50;;;;;23.98;56.08;101258.00;5094451;27;45390;-83
2022/08/01 07:22:02;;;;;;;;;2.25;2.25;;;;;24.02;55.64;101257.97;5095045;27;45579;-85
2022/08/01 07:24:28;;;;;;;;;1.00;1.00;;;;;24.21;55.73;101290.84;5094612;27;46426;-84
2022/08/01 07:26:54;;;;;;;;;2.00;2.00;;;;;24.07;56.15;101271.34;5076659;27;45635;-85
2022/08/01 07:29:24;;;;;;;;;1.00;1.00;;;;;24.29;55.75;101290.75;5094758;27;45410;-85
2022/08/01 07:31:55;;;;;;;;;2.00;1.25;;;;;24.43;54.80;101294.16;5094772;27;45536;-84
2022/08/01 07:34:22;;;;;;;;;1.00;1.00;;;;;24.37;55.12;101295.13;5094091;27;45585;-85
2022/08/01 07:36:47;;;;;;;;;1.25;1.25;;;;;24.44;55.62;101302.22;5094344;27;46013;-84
2022/08/01 07:39:13;;;;;;;;;2.00;1.00;;;;;24.35;54.84;101278.13;5094811;27;45296;-85
2022/08/01 07:41:38;;;;;;;;;0.25;0.00;;;;;24.40;54.60;101280.78;5094448;27;45375;-83
2022/08/01 07:44:04;;;;;;;;;1.00;1.00;;;;;24.23;54.86;101269.31;5094187;27;46581;-85
2022/08/01 07:46:30;;;;;;;;;1.00;1.00;;;;;24.50;54.82;101308.41;5094182;27;45458;-85
2022/08/01 07:48:56;;;;;;;;;1.75;1.00;;;;;24.53;54.84;101314.66;5093958;27;45400;-84
2022/08/01 07:51:21;;;;;;;;;2.00;1.25;;;;;24.31;54.91;101264.75;5094300;27;45548;-82
2022/08/01 07:53:47;;;;;;;;;2.00;1.75;;;;;24.47;54.14;101297.69;5093977;27;45437;-82
2022/08/01 07:56:12;;;;;;;;;3.00;3.00;;;;;24.48;54.19;101303.03;5094093;27;45374;-84
2022/08/01 07:58:37;;;;;;;;;3.25;2.25;;;;;24.52;54.16;101293.16;5094890;27;45465;-83
2022/08/01 08:01:03;;;;;;;;;1.00;1.00;;;;;24.50;54.69;101287.81;5097348;27;45582;-84
2022/08/01 08:03:28;;;;;;;;;1.00;1.00;;;;;24.59;54.85;101297.53;5097243;27;46433;-85
2022/08/01 08:05:53;;;;;;;;;2.00;1.00;;;;;24.64;54.50;101299.25;5097905;27;45422;-85
2022/08/01 08:08:19;;;;;;;;;2.00;2.00;;;;;24.66;54.09;101302.78;5097851;27;45306;-84
2022/08/01 08:10:44;;;;;;;;;1.00;1.00;;;;;24.69;54.20;101310.81;5097753;27;45446;-85
2022/08/01 08:13:10;;;;;;;;;2.00;2.00;;;;;24.67;54.17;101301.88;5097829;27;45284;-83
2022/08/01 08:15:35;;;;;;;;;3.00;2.00;;;;;24.63;54.18;101297.47;5097184;27;45566;-82
2022/08/01 08:18:03;;;;;;;;;2.00;2.00;;;;;24.65;54.16;101301.03;5097240;27;45278;-84
2022/08/01 08:20:29;;;;;;;;;2.00;2.00;;;;;24.74;54.05;101291.94;5078828;27;45504;-84
2022/08/01 08:22:55;;;;;;;;;1.75;1.75;;;;;24.96;53.04;101316.69;5097279;27;46400;-84
2022/08/01 08:25:24;;;;;;;;;3.00;3.00;;;;;25.10;53.69;101317.38;5078791;27;46271;-83
2022/08/01 08:27:49;;;;;;;;;2.75;2.75;;;;;25.17;53.29;101307.41;5079018;27;45424;-84
2022/08/01 08:30:15;;;;;;;;;1.50;1.50;;;;;25.01;52.66;101284.34;5097166;27;45370;-83
2022/08/01 08:32:41;;;;;;;;;2.00;2.00;;;;;24.86;52.87;101285.47;5078751;27;47631;-84
2022/08/01 08:35:07;;;;;;;;;1.00;1.00;;;;;24.96;52.54;101325.63;5097275;27;45665;-82
2022/08/01 08:37:33;;;;;;;;;2.00;2.00;;;;;24.76;52.78;101294.59;5078867;27;45415;-83
2022/08/01 08:39:58;;;;;;;;;2.25;2.00;;;;;24.93;52.77;101322.13;5097101;27;45381;-84
2022/08/01 08:42:24;;;;;;;;;1.00;1.00;;;;;24.88;52.73;101298.00;5078468;27;48472;-85
2022/08/01 08:44:50;;;;;;;;;0.00;0.00;;;;;24.85;52.78;101284.59;5078386;27;46297;-83
2022/08/01 08:47:17;;;;;;;;;3.00;3.00;;;;;25.09;52.62;101306.66;5097202;27;45437;-84
2022/08/01 08:49:43;;;;;;;;;1.00;1.00;;;;;25.03;52.10;101272.66;5096526;27;45623;-83
2022/08/01 08:52:10;;;;;;;;;2.00;2.00;;;;;25.23;51.41;101298.38;5096507;27;46264;-83
2022/08/01 08:54:37;;;;;;;;;2.00;2.00;;;;;25.27;52.10;101289.31;5096527;27;45772;-84
2022/08/01 08:57:03;;;;;;;;;2.00;2.00;;;;;25.37;51.31;101277.47;5096598;27;45402;-82
2022/08/01 08:59:29;;;;;;;;;4.50;2.00;;;;;25.50;51.06;101297.84;5078267;27;45524;-82
2022/08/01 09:01:55;;;;;;;;;2.00;2.00;;;;;25.36;51.25;101278.38;5078037;27;48211;-82
2022/08/01 09:04:24;;;;;;;;;1.25;1.00;;;;;25.48;51.28;101295.22;5096528;27;45906;-84
2022/08/01 09:06:50;;;;;;;;;1.00;1.00;;;;;25.43;51.25;101272.88;5096557;27;45240;-85
2022/08/01 09:09:17;;;;;;;;;1.50;1.50;;;;;25.64;50.55;101295.81;5077837;27;45415;-84
2022/08/01 09:11:42;;;;;;;;;2.00;2.00;;;;;25.73;50.54;101281.28;5078309;27;47210;-84
2022/08/01 09:14:11;;;;;;;;;1.00;1.00;;;;;25.64;49.88;101238.38;5078350;27;45477;-84
2022/08/01 09:16:41;;;;;;;;;3.25;1.00;;;;;26.08;50.00;101288.69;5096663;27;45418;-84
2022/08/01 09:19:36;;;;;;;;;1.25;1.25;;;;;26.19;49.56;101296.53;5096843;27;45429;-84
2022/08/01 09:22:05;;;;;;;;;1.00;1.00;;;;;26.19;49.03;101308.19;5080923;27;45524;-84
2022/08/01 09:24:31;;;;;;;;;1.00;1.00;;;;;25.97;49.29;101277.25;5096543;27;45645;-84
2022/08/01 09:26:57;;;;;;;;;1.00;1.00;;;;;25.96;49.24;101295.22;5096357;27;45382;-84
2022/08/01 09:29:33;;;;;;;;;2.00;2.00;;;;;25.87;49.24;101289.13;5078271;27;45398;-84
2022/08/01 09:32:04;;;;;;;;;1.50;1.50;;;;;25.89;49.45;101309.72;5096179;27;45274;-84
2022/08/01 09:34:30;;;;;;;;;1.50;1.50;;;;;25.95;49.69;101306.00;5096214;27;45449;-84
2022/08/01 09:36:59;;;;;;;;;1.75;1.75;;;;;25.97;50.16;101313.16;5096189;27;45376;-84
2022/08/01 09:39:26;;;;;;;;;2.75;2.00;;;;;25.84;49.57;101278.41;5096416;27;45456;-84
2022/08/01 09:41:54;;;;;;;;;3.00;2.50;;;;;26.00;49.47;101312.19;5077677;27;47042;-84
2022/08/01 09:44:20;;;;;;;;;2.00;2.00;;;;;25.84;49.54;101294.56;5096547;27;45706;-84
2022/08/01 09:46:50;;;;;;;;;3.00;3.00;;;;;25.95;49.48;101322.16;5096038;27;46164;-84
2022/08/01 09:49:27;;;;;;;;;1.75;1.75;;;;;25.79;49.71;101302.72;5095790;27;45446;-82
2022/08/01 09:51:53;;;;;;;;;3.00;2.75;;;;;25.59;49.44;101270.78;5077164;27;47337;-84
2022/08/01 09:54:32;;;;;;;;;3.75;3.00;;;;;25.68;49.76;101297.53;5095692;27;45354;-83
2022/08/01 09:57:16;;;;;;;;;3.00;2.50;;;;;25.86;50.32;101322.34;5095909;27;45309;-83
2022/08/01 09:59:50;;;;;;;;;1.75;1.25;;;;;25.69;49.21;101285.84;5077252;27;45253;-82
2022/08/01 10:02:33;;;;;;;;;2.00;2.00;;;;;25.75;49.54;101290.25;5095679;27;45580;-82
2022/08/01 10:05:01;;;;;;;;;2.75;2.50;;;;;25.78;49.65;101297.38;5095267;27;45493;-84
2022/08/01 10:07:26;;;;;;;;;2.00;2.00;;;;;25.64;50.14;101285.03;5095579;27;45349;-82
2022/08/01 10:09:51;;;;;;;;;2.50;2.50;;;;;25.76;49.57;101308.16;5095830;27;45398;-83
2022/08/01 10:12:20;;;;;;;;;3.25;3.25;;;;;25.80;49.75;101309.00;5095361;27;46411;-84
2022/08/01 10:14:49;;;;;;;;;4.00;3.25;;;;;25.83;49.87;101309.84;5077000;27;46227;-83
2022/08/01 10:17:19;;;;;;;;;2.50;2.50;;;;;25.85;49.37;101320.56;5095706;27;45641;-84
2022/08/01 10:19:46;;;;;;;;;2.75;2.75;;;;;25.83;49.54;101306.25;5095385;27;45343;-85
2022/08/01 10:22:19;;;;;;;;;3.75;3.75;;;;;25.63;49.48;101279.69;5094303;27;46622;-81
2022/08/01 10:24:47;;;;;;;;;2.50;2.50;;;;;25.76;49.64;101296.50;5076890;27;45458;-84
2022/08/01 10:27:15;;;;;;;;;2.00;2.00;;;;;25.91;49.23;101302.50;5095304;27;45389;-82
2022/08/01 10:29:46;;;;;;;;;3.25;3.00;;;;;26.09;49.13;101289.56;5077062;27;45516;-82
2022/08/01 10:32:12;;;;;;;;;2.50;2.00;;;;;26.23;49.18;101288.34;5095148;27;45702;-83
2022/08/01 10:34:37;;;;;;;;;3.00;2.75;;;;;26.46;48.73;101295.09;5094892;27;45415;-83
2022/08/01 10:37:05;;;;;;;;;2.00;2.00;;;;;26.63;48.03;101287.50;5095042;27;45284;-82
2022/08/01 10:39:32;;;;;;;;;2.50;2.50;;;;;26.88;48.28;101281.53;5095488;27;45532;-84
2022/08/01 10:41:58;;;;;;;;;2.00;2.00;;;;;26.96;47.44;101271.44;5095016;27;45319;-83
2022/08/01 10:44:26;;;;;;;;;4.00;3.00;;;;;26.92;47.44;101256.25;5076588;27;45775;-82
2022/08/01 10:46:57;;;;;;;;;1.00;1.00;;;;;27.06;46.96;101291.88;5094975;27;45646;-84
2022/08/01 10:49:31;;;;;;;;;2.75;2.00;;;;;27.02;46.88;101290.16;5094757;27;45459;-84
2022/08/01 10:51:57;;;;;;;;;3.00;3.00;;;;;27.14;46.88;101300.69;5094676;27;46744;-82
2022/08/01 10:54:26;;;;;;;;;2.25;2.00;;;;;27.32;46.61;101304.72;5076591;27;45832;-84
2022/08/01 10:56:52;;;;;;;;;2.50;2.50;;;;;27.38;46.62;101307.25;5076649;27;45400;-84
2022/08/01 10:59:23;;;;;;;;;3.00;3.00;;;;;27.27;46.57;101290.47;5076460;27;45542;-84
2022/08/01 11:02:05;;;;;;;;;5.00;4.00;;;;;27.37;46.34;101304.59;5094701;27;45456;-83
2022/08/01 11:05:02;;;;;;;;;4.00;3.00;;;;;27.30;46.76;101287.69;5094260;27;45203;-84
2022/08/01 11:07:51;;;;;;;;;4.00;4.00;;;;;27.39;46.17;101308.13;5076329;27;45371;-83
2022/08/01 11:10:24;;;;;;;;;4.00;4.00;;;;;27.21;46.82;101305.00;5076094;27;45501;-82
2022/08/01 11:12:50;;;;;;;;;4.25;4.25;;;;;27.25;46.79;101308.53;5076107;27;46677;-83
2022/08/01 11:15:17;;;;;;;;;2.00;2.00;;;;;27.39;46.97;101300.03;5094329;27;45341;-82
2022/08/01 11:17:50;;;;;;;;;3.25;3.25;;;;;27.55;46.65;101295.16;5094834;27;45428;-83
2022/08/01 11:20:24;;;;;;;;;2.00;2.00;;;;;27.60;46.52;101293.22;5094315;27;45315;-83
2022/08/01 11:22:58;;;;;;;;;3.75;3.00;;;;;27.81;46.53;101306.16;5076026;27;48038;-84
2022/08/01 11:25:24;;;;;;;;;3.00;3.00;;;;;27.89;46.01;101300.53;5076226;27;46226;-84
2022/08/01 11:28:18;;;;;;;;;3.00;3.00;;;;;27.83;45.43;101285.34;5076169;27;45373;-85